Gold Coast, Australia
Current Conditions -  °F | °C
As of 2:00 PM on Sunday 26 Oct 2014 (Local Time) from YBCG Reporting Station
Clear Clear  
Wind Chill: 77°   Ceiling: Unl
Heat Index: 79°   Visibility: 6mi
Dew Point: 66°   Wind: 22mph
Humidity: 69%   Direction: 360°N
Pressure: 29.88"   Gusts: NA
Location:  28.02°S, 153.39°E
Report Text: YBCG 260400Z AUTO 36019KT 9999 // NCD 25/19 Q1012
Loading
Personal Weather Stations






























Interactive Weather Map
Tropical Storm Tracking
New forecast layout! Learn more

10-Day Weather Forecast

Advertisements
Track Severe Weather on mobile